Aviation Digital Data Service (ADDS)

Output produced by METARs form (0639 UTC 24 September 2020)
found at http://www.aviationweather.gov/metar/data/
 
METAR text: LFMY 240630Z AUTO VRB01KT CAVOK 17/16 Q1010 NOSIG
Conditions at: LFMY (SALON (FAFB) , FR) observed 0630 UTC 24 September 2020
Temperature: 17.0°C (63°F)
Dewpoint: 16.0°C (61°F) [RH = 94%]
Pressure (altimeter): 29.82 inches Hg (1010.0 mb)
Winds: variable direction winds at 1 MPH (1 knots; 0.5 m/s)
Visibility: 6 or more miles (10+ km)
Ceiling: ceiling and visibility are OK
Clouds: unknown
Weather: no significant weather observed at this time

METAR text: LFMY 240600Z AUTO 00000KT CAVOK 17/15 Q1010 NOSIG
Conditions at: LFMY (SALON (FAFB) , FR) observed 0600 UTC 24 September 2020
Temperature: 17.0°C (63°F)
Dewpoint: 15.0°C (59°F) [RH = 88%]
Pressure (altimeter): 29.82 inches Hg (1010.0 mb)
Winds: calm
Visibility: 6 or more miles (10+ km)
Ceiling: ceiling and visibility are OK
Clouds: unknown
Weather: no significant weather observed at this time

Forecast for: LFMY (SALON (FAFB) , FR)
Text: TAF LFMY 240200Z 2403/2503 VRB02KT CAVOK
Forecast period: 0300 to 1100 UTC 24 September 2020
Forecast type: FROM: standard forecast or significant change
Winds: variable direction winds at 2 MPH (2 knots; 1.0 m/s)
Visibility: 6 or more miles (10+ km)
Ceiling: unknown
Clouds: missing
Weather: NSW  (no significant weather)
Text: BECMG 2411/2413 22010KT
Forecast period: 1100 UTC 24 September 2020 to 0300 UTC 25 September 2020
Forecast type: BECOMING: Conditions expected to become as follows by 1300 UTC 24 September 2020
Winds: from the SW (220 degrees) at 12 MPH (10 knots; 5.1 m/s)
Visibility: 6 or more miles (10+ km)
Ceiling: unknown
Clouds: missing
Weather: NSW  (no significant weather)
Text: TEMPO 2412/2418 SCT030TCU
Forecast period: 1200 to 1800 UTC 24 September 2020
Forecast type: TEMPORARY: The following changes expected for less than half the time period
Visibility: missing
Ceiling: at least 12,000 feet AGL
Clouds: scattered clouds at 3000 feet AGL
Weather: no significant weather forecast for this period
Text: TEMPO 2420/2503 2000 TSRA SCT010 BKN025CB
Forecast period: 2000 UTC 24 September 2020 to 0300 UTC 25 September 2020
Forecast type: TEMPORARY: The following changes expected for less than half the time period
Visibility: 1.24 miles (2.00 km)
Ceiling: 2500 feet AGL
Clouds: scattered clouds at 1000 feet AGL
broken clouds at 2500 feet AGL
Weather: TSRA  (rain associated with thunderstorm(s))